Time;durP1;ratioP1;P1;durP2;ratioP2;P2;SDS_P1;SDS_P2;PMS_P1;PMS_P2;Temp;Humidity;BMP_temperature;BMP_pressure;BME280_temperature;BME280_humidity;BME280_pressure;Samples;Min_cycle;Max_cycle;Signal;HPM_P1;HPM_P2
2022/04/10 00:01:36;;;;;;;11.10;4.87;;;2.60;99.90;;;;;;4963748;28;20206;-63
2022/04/10 00:04:04;;;;;;;11.10;5.07;;;2.50;1.00;;;;;;4959814;28;20779;-63
2022/04/10 00:06:34;;;;;;;7.57;4.80;;;2.50;1.00;;;;;;4963514;28;20274;-63
2022/04/10 00:09:00;;;;;;;10.80;5.23;;;2.40;1.00;;;;;;4952922;28;20242;-64
2022/04/10 00:11:29;;;;;;;10.00;5.20;;;2.30;1.00;;;;;;4963443;28;20222;-63
2022/04/10 00:13:56;;;;;;;14.53;5.30;;;2.30;1.00;;;;;;4952080;28;20194;-62
2022/04/10 00:16:23;;;;;;;10.20;5.60;;;2.30;1.00;;;;;;4946208;28;20195;-62
2022/04/10 00:18:51;;;;;;;9.50;5.70;;;2.40;1.00;;;;;;4963033;28;20198;-62
2022/04/10 00:21:18;;;;;;;13.03;6.13;;;2.40;1.00;;;;;;4952737;28;20230;-62
2022/04/10 00:23:45;;;;;;;10.20;5.47;;;2.30;1.00;;;;;;4963210;28;20266;-63
2022/04/10 00:26:13;;;;;;;14.23;6.37;;;2.30;1.00;;;;;;4963071;28;20648;-62
2022/04/10 00:28:41;;;;;;;13.13;5.90;;;2.30;1.00;;;;;;4953617;28;20218;-63
2022/04/10 00:31:08;;;;;;;11.77;6.50;;;2.20;1.00;;;;;;4964152;28;20206;-63
2022/04/10 00:33:36;;;;;;;10.97;6.40;;;2.20;1.00;;;;;;4936148;28;20561;-62
2022/04/10 00:36:04;;;;;;;7.80;6.20;;;2.20;1.00;;;;;;4963111;28;20597;-62
2022/04/10 00:38:31;;;;;;;10.50;6.40;;;2.20;1.00;;;;;;4945793;28;20214;-63
2022/04/10 00:40:58;;;;;;;17.53;7.40;;;2.10;1.00;;;;;;4962377;28;20249;-63
2022/04/10 00:43:30;;;;;;;15.47;6.77;;;2.00;1.00;;;;;;4945053;28;20689;-63
2022/04/10 00:45:58;;;;;;;16.37;7.13;;;1.90;1.00;;;;;;4962143;28;20631;-62
2022/04/10 00:48:27;;;;;;;15.93;8.00;;;2.00;95.80;;;;;;4949906;28;20234;-62
2022/04/10 00:53:43;;;;;;;14.33;7.90;;;1.90;99.90;;;;;;4963499;28;20199;-64
2022/04/10 00:56:10;;;;;;;13.87;7.80;;;1.90;99.90;;;;;;4944899;28;20209;-64
2022/04/10 00:58:37;;;;;;;17.00;8.30;;;1.80;99.90;;;;;;4928996;28;20802;-62
2022/04/10 01:01:04;;;;;;;15.87;7.30;;;1.80;99.90;;;;;;4961100;28;20191;-65
2022/04/10 01:03:31;;;;;;;14.83;7.33;;;1.80;99.90;;;;;;4952771;28;20203;-63
2022/04/10 01:05:58;;;;;;;15.90;8.17;;;1.70;99.90;;;;;;4952388;28;20763;-62
2022/04/10 01:08:26;;;;;;;19.30;9.13;;;1.70;99.90;;;;;;4946813;28;20198;-63
2022/04/10 01:10:53;;;;;;;14.93;7.53;;;1.60;99.90;;;;;;4950322;28;20713;-63
2022/04/10 01:13:21;;;;;;;15.53;7.43;;;1.60;99.90;;;;;;4945728;28;20226;-63
2022/04/10 01:15:48;;;;;;;13.10;7.20;;;1.60;1.00;;;;;;4952313;28;20290;-63
2022/04/10 01:18:15;;;;;;;15.20;7.70;;;1.70;1.00;;;;;;4946405;28;20210;-64
2022/04/10 01:20:43;;;;;;;12.60;6.57;;;1.60;1.00;;;;;;4934125;28;20222;-68
2022/04/10 01:23:10;;;;;;;14.97;7.47;;;1.70;1.00;;;;;;4944880;28;20537;-64
2022/04/10 01:25:39;;;;;;;21.83;7.73;;;1.70;1.00;;;;;;4951350;28;20286;-63
2022/04/10 01:28:13;;;;;;;17.37;10.20;;;1.70;1.00;;;;;;4944596;28;20218;-63
2022/04/10 01:30:43;;;;;;;19.47;11.70;;;1.60;1.00;;;;;;4958951;28;20733;-63
2022/04/10 01:33:11;;;;;;;18.23;9.87;;;1.70;1.00;;;;;;4947708;28;20638;-62
2022/04/10 01:35:39;;;;;;;19.07;12.23;;;1.70;99.90;;;;;;4948835;28;20740;-62
2022/04/10 01:38:12;;;;;;;17.50;10.87;;;1.80;1.00;;;;;;4943265;28;20703;-63
2022/04/10 01:40:47;;;;;;;15.57;8.00;;;1.80;99.90;;;;;;4958746;28;20202;-64
2022/04/10 01:43:14;;;;;;;13.10;7.10;;;1.90;99.90;;;;;;4943236;28;20602;-62
2022/04/10 01:45:41;;;;;;;14.37;6.60;;;1.90;99.90;;;;;;4944023;28;20202;-64
2022/04/10 01:48:08;;;;;;;14.13;8.10;;;1.90;99.90;;;;;;4934690;28;20568;-64
2022/04/10 01:50:35;;;;;;;14.87;7.03;;;1.90;99.90;;;;;;4945084;28;20839;-63
2022/04/10 01:53:04;;;;;;;13.17;6.60;;;1.90;99.90;;;;;;4949454;28;20214;-63
2022/04/10 01:55:32;;;;;;;13.43;6.57;;;1.90;26.30;;;;;;4935816;28;20203;-64
2022/04/10 01:57:59;;;;;;;15.30;8.43;;;1.90;99.90;;;;;;4951985;28;20755;-62
2022/04/10 02:00:26;;;;;;;14.60;7.03;;;1.80;99.90;;;;;;4944405;28;20521;-63
2022/04/10 02:02:53;;;;;;;14.63;7.37;;;1.80;99.90;;;;;;4958254;28;20246;-63
2022/04/10 02:05:20;;;;;;;13.33;6.77;;;1.80;99.90;;;;;;4943798;28;20276;-63
2022/04/10 02:07:47;;;;;;;12.70;7.47;;;1.70;99.90;;;;;;4934160;28;20203;-63
2022/04/10 02:10:15;;;;;;;13.53;7.47;;;1.70;99.90;;;;;;4928089;28;20235;-63
2022/04/10 02:12:42;;;;;;;14.30;7.33;;;1.70;99.90;;;;;;4944263;28;20214;-63
2022/04/10 02:15:11;;;;;;;14.07;7.57;;;1.70;99.90;;;;;;4950111;28;20195;-62
2022/04/10 02:17:38;;;;;;;16.73;7.90;;;1.60;1.00;;;;;;4957731;28;20190;-62
2022/04/10 02:20:05;;;;;;;10.20;6.30;;;1.60;1.00;;;;;;4943957;28;20197;-63
2022/04/10 02:22:32;;;;;;;17.60;7.43;;;1.50;1.00;;;;;;4942447;28;20214;-64
2022/04/10 02:24:59;;;;;;;13.00;7.20;;;1.50;1.00;;;;;;4949829;28;20202;-63
2022/04/10 02:27:27;;;;;;;16.63;8.03;;;1.40;1.00;;;;;;4950775;28;20202;-63
2022/04/10 02:29:54;;;;;;;16.40;8.13;;;1.40;1.00;;;;;;4928062;28;20206;-63
2022/04/10 02:32:23;;;;;;;16.47;7.77;;;1.40;1.00;;;;;;4949766;28;20242;-62
2022/04/10 02:34:50;;;;;;;16.07;7.90;;;1.40;1.00;;;;;;4949460;28;20190;-65
2022/04/10 02:37:19;;;;;;;17.37;7.87;;;1.40;99.70;;;;;;4950368;28;20198;-63
2022/04/10 02:39:46;;;;;;;12.07;7.80;;;1.40;99.90;;;;;;4933843;28;21134;-65
2022/04/10 02:42:13;;;;;;;15.93;8.03;;;1.40;99.90;;;;;;4934557;28;20203;-63
2022/04/10 02:44:40;;;;;;;14.10;7.87;;;1.40;99.90;;;;;;4943178;28;20790;-62
2022/04/10 02:47:07;;;;;;;21.07;7.80;;;1.40;99.90;;;;;;4949974;28;20302;-62
2022/04/10 02:49:34;;;;;;;13.90;8.13;;;1.30;99.90;;;;;;4925434;28;20217;-63
2022/04/10 02:52:01;;;;;;;17.47;8.43;;;1.40;99.90;;;;;;4943413;28;20225;-68
2022/04/10 02:54:28;;;;;;;16.10;9.07;;;1.40;99.90;;;;;;4929175;28;20285;-63
2022/04/10 02:56:55;;;;;;;18.50;9.60;;;1.50;99.90;;;;;;4949598;28;20186;-63
2022/04/10 02:59:23;;;;;;;17.83;9.00;;;1.50;99.90;;;;;;4932757;28;20210;-63
2022/04/10 03:01:50;;;;;;;21.57;8.80;;;1.50;99.90;;;;;;4943792;28;20670;-63
2022/04/10 03:04:18;;;;;;;13.93;9.43;;;1.60;99.90;;;;;;4957917;28;20281;-64
2022/04/10 03:06:45;;;;;;;27.63;12.20;;;1.50;99.90;;;;;;4943439;28;21191;-64
2022/04/10 03:09:12;;;;;;;25.60;16.77;;;1.40;71.10;;;;;;4942791;28;20206;-63
2022/04/10 03:11:39;;;;;;;21.70;14.40;;;1.40;99.90;;;;;;4927805;28;20245;-64
2022/04/10 03:14:06;;;;;;;23.63;12.37;;;1.50;99.90;;;;;;4934278;28;20749;-64
2022/04/10 03:16:34;;;;;;;21.60;13.13;;;1.50;99.90;;;;;;4947905;28;20202;-64
2022/04/10 03:19:02;;;;;;;21.97;13.60;;;1.50;76.10;;;;;;4944771;28;21126;-62
2022/04/10 03:21:29;;;;;;;21.67;11.97;;;1.50;1.00;;;;;;4943548;28;20230;-64
2022/04/10 03:23:57;;;;;;;24.17;14.80;;;1.50;25.80;;;;;;4943658;28;20206;-64
2022/04/10 03:26:24;;;;;;;30.00;14.73;;;1.40;99.90;;;;;;4944679;28;20246;-65
2022/04/10 03:28:51;;;;;;;27.23;14.93;;;1.40;99.90;;;;;;4943737;28;20213;-64
2022/04/10 03:31:20;;;;;;;20.07;11.43;;;1.40;99.90;;;;;;4956027;28;20206;-64
2022/04/10 03:33:47;;;;;;;15.53;9.50;;;1.40;99.90;;;;;;4958299;28;20218;-63
2022/04/10 03:36:15;;;;;;;18.83;9.83;;;1.30;65.20;;;;;;4956952;28;20191;-64
2022/04/10 03:38:42;;;;;;;18.40;10.00;;;1.40;99.90;;;;;;4942133;28;20202;-63
2022/04/10 03:41:11;;;;;;;25.73;10.30;;;1.40;99.90;;;;;;4943390;28;20198;-64
2022/04/10 03:43:38;;;;;;;18.57;9.73;;;1.50;99.90;;;;;;4956153;28;20207;-64
2022/04/10 03:46:05;;;;;;;23.17;10.23;;;1.40;6.50;;;;;;4941914;28;20256;-64
2022/04/10 03:48:33;;;;;;;17.53;10.00;;;1.40;99.90;;;;;;4956356;28;20746;-64
2022/04/10 03:51:00;;;;;;;17.40;9.40;;;1.30;99.90;;;;;;4941674;28;20203;-63
2022/04/10 03:53:27;;;;;;;14.80;9.47;;;1.30;99.90;;;;;;4947927;28;20219;-64
2022/04/10 03:55:54;;;;;;;14.47;9.60;;;1.40;99.90;;;;;;4949872;28;20219;-64
2022/04/10 03:58:22;;;;;;;17.30;9.00;;;1.50;99.90;;;;;;4948888;28;20828;-63
2022/04/10 04:00:49;;;;;;;14.60;9.70;;;1.50;1.00;;;;;;4931905;28;20322;-62
2022/04/10 04:03:17;;;;;;;20.27;9.47;;;1.40;1.00;;;;;;4947333;28;20198;-63
2022/04/10 04:05:45;;;;;;;22.23;10.00;;;1.30;1.00;;;;;;4943657;28;20217;-63
2022/04/10 04:08:15;;;;;;;19.40;10.60;;;1.20;1.00;;;;;;4941327;28;20202;-63
2022/04/10 04:10:42;;;;;;;16.60;9.80;;;1.20;95.40;;;;;;4942794;28;20747;-65
2022/04/10 04:13:09;;;;;;;18.60;9.83;;;1.20;99.90;;;;;;4941972;28;20218;-63
2022/04/10 04:15:37;;;;;;;15.67;9.70;;;1.10;99.90;;;;;;4943658;28;20282;-64
2022/04/10 04:18:04;;;;;;;14.50;8.00;;;1.00;99.90;;;;;;4943431;28;20276;-63
2022/04/10 04:20:32;;;;;;;18.97;10.33;;;1.10;1.00;;;;;;4948243;28;20295;-63
2022/04/10 04:23:00;;;;;;;18.10;9.33;;;1.10;1.00;;;;;;4942315;28;20303;-64
2022/04/10 04:25:28;;;;;;;17.43;10.40;;;1.10;99.90;;;;;;4958231;28;20258;-63
2022/04/10 04:27:57;;;;;;;19.40;10.00;;;1.10;1.00;;;;;;4962120;28;20195;-63
2022/04/10 04:30:24;;;;;;;19.37;9.87;;;1.00;99.90;;;;;;4947262;28;20310;-63
2022/04/10 04:32:56;;;;;;;20.13;9.77;;;1.00;1.00;;;;;;4933471;28;20636;-63
2022/04/10 04:35:23;;;;;;;23.67;12.07;;;1.10;1.00;;;;;;4936546;28;20688;-64
2022/04/10 04:37:51;;;;;;;19.07;11.07;;;1.20;1.00;;;;;;4928783;28;20250;-65
2022/04/10 04:40:21;;;;;;;19.93;10.20;;;1.20;1.00;;;;;;4961326;28;20198;-63
2022/04/10 04:42:50;;;;;;;16.73;10.20;;;1.30;1.00;;;;;;4959735;28;20212;-64
2022/04/10 04:45:22;;;;;;;13.67;9.30;;;1.20;99.90;;;;;;4937170;28;20238;-63
2022/04/10 04:47:59;;;;;;;17.90;9.63;;;1.20;99.90;;;;;;4953463;28;20210;-63
2022/04/10 04:50:27;;;;;;;16.97;9.73;;;1.10;99.90;;;;;;4936659;28;20277;-66
2022/04/10 04:52:54;;;;;;;19.50;9.80;;;1.10;99.90;;;;;;4944482;28;20221;-64
2022/04/10 04:55:22;;;;;;;18.37;10.93;;;1.10;99.90;;;;;;4936907;28;20199;-65
2022/04/10 04:57:49;;;;;;;18.67;11.37;;;1.10;99.90;;;;;;4960070;28;20251;-65
2022/04/10 05:00:16;;;;;;;16.00;11.13;;;1.10;99.90;;;;;;4931838;28;20199;-63
2022/04/10 05:02:49;;;;;;;21.63;11.17;;;1.20;99.90;;;;;;4952849;28;20625;-65
2022/04/10 05:05:17;;;;;;;21.13;10.80;;;1.20;99.90;;;;;;4934886;28;20215;-64
2022/04/10 05:07:44;;;;;;;20.13;10.47;;;1.20;99.90;;;;;;4945401;28;20197;-62
2022/04/10 05:10:11;;;;;;;21.47;11.00;;;1.30;99.90;;;;;;4944659;28;20211;-63
2022/04/10 05:12:39;;;;;;;15.07;9.80;;;1.40;45.40;;;;;;4950826;28;20264;-63
2022/04/10 05:15:10;;;;;;;15.97;9.60;;;1.50;1.00;;;;;;4942511;28;20199;-63
2022/04/10 05:17:42;;;;;;;21.47;9.80;;;1.60;1.00;;;;;;4946059;28;20198;-63
2022/04/10 05:20:10;;;;;;;19.83;9.70;;;1.70;99.90;;;;;;4953514;28;20218;-63
2022/04/10 05:22:56;;;;;;;16.53;9.80;;;1.90;99.90;;;;;;4944688;28;20657;-64
2022/04/10 05:25:25;;;;;;;15.27;8.87;;;2.00;1.00;;;;;;4946498;28;20238;-65
2022/04/10 05:27:52;;;;;;;18.53;9.50;;;2.00;1.00;;;;;;4961768;28;20449;-65
2022/04/10 05:30:20;;;;;;;19.60;9.83;;;2.10;1.00;;;;;;4952310;28;20240;-63
2022/04/10 05:32:49;;;;;;;15.50;8.27;;;2.20;1.00;;;;;;4952263;28;20261;-64
2022/04/10 05:35:16;;;;;;;21.87;9.67;;;2.30;1.00;;;;;;4943368;28;20205;-64
2022/04/10 05:37:47;;;;;;;18.00;9.20;;;2.40;99.90;;;;;;4942526;28;20249;-63
2022/04/10 05:40:16;;;;;;;15.73;8.20;;;2.40;99.90;;;;;;4933620;28;20190;-63
2022/04/10 05:42:44;;;;;;;14.10;7.77;;;2.60;99.90;;;;;;4943699;28;20230;-63
2022/04/10 05:45:13;;;;;;;21.30;8.33;;;2.80;99.90;;;;;;4959558;28;20195;-64
2022/04/10 05:47:45;;;;;;;19.63;8.67;;;3.20;47.70;;;;;;4945582;28;21281;-64
2022/04/10 05:50:14;;;;;;;16.53;7.53;;;3.40;1.00;;;;;;4947014;28;20724;-63
2022/04/10 05:52:44;;;;;;;22.27;7.17;;;3.60;1.00;;;;;;4953101;28;20202;-64
2022/04/10 05:55:13;;;;;;;20.37;7.93;;;3.80;1.00;;;;;;4944967;28;20203;-64
2022/04/10 05:57:41;;;;;;;21.43;7.33;;;4.00;1.00;;;;;;4946313;28;20194;-62
2022/04/10 06:00:14;;;;;;;14.67;6.13;;;5.30;99.90;;;;;;4944974;28;20204;-60
2022/04/10 06:02:41;;;;;;;12.00;6.33;;;7.80;1.00;;;;;;4963347;28;20205;-62
2022/04/10 06:05:15;;;;;;;8.63;5.50;;;7.30;99.90;;;;;;4961915;28;20203;-63
2022/04/10 06:07:53;;;;;;;9.70;5.67;;;6.60;1.00;;;;;;4957508;28;20295;-63
2022/04/10 06:10:21;;;;;;;12.17;5.57;;;7.40;1.00;;;;;;4948196;28;20289;-64
2022/04/10 06:12:48;;;;;;;11.43;5.00;;;9.60;99.90;;;;;;4948272;28;20542;-62
2022/04/10 06:15:21;;;;;;;9.93;4.77;;;11.80;1.00;;;;;;4945660;28;20607;-63
2022/04/10 06:17:54;;;;;;;10.50;4.77;;;13.90;1.00;;;;;;4951219;28;20202;-65
2022/04/10 06:20:21;;;;;;;10.30;4.80;;;14.70;1.00;;;;;;4946496;28;20230;-63
2022/04/10 06:22:48;;;;;;;9.80;5.23;;;15.50;1.00;;;;;;4946495;28;20209;-63
2022/04/10 06:25:18;;;;;;;7.40;4.43;;;16.10;1.00;;;;;;4952460;28;20231;-62
2022/04/10 06:27:45;;;;;;;10.80;4.40;;;16.20;1.00;;;;;;4946728;28;20207;-61
2022/04/10 06:30:12;;;;;;;9.88;4.45;;;17.00;1.00;;;;;;4931390;28;20199;-63
2022/04/10 06:32:46;;;;;;;12.75;5.63;;;17.90;1.00;;;;;;4949587;28;20291;-62
2022/04/10 06:35:14;;;;;;;11.70;4.43;;;18.80;99.90;;;;;;4944982;28;20234;-63
2022/04/10 06:37:42;;;;;;;9.52;4.25;;;18.30;99.90;;;;;;4946370;28;20205;-66
2022/04/10 06:40:11;;;;;;;12.68;5.00;;;18.60;99.90;;;;;;4965068;28;20206;-63
2022/04/10 06:42:40;;;;;;;9.75;4.57;;;19.40;99.90;;;;;;4963932;28;20196;-62
2022/04/10 06:45:22;;;;;;;11.27;4.63;;;19.40;99.90;;;;;;4964183;28;20198;-63
2022/04/10 06:47:55;;;;;;;9.50;4.47;;;17.70;99.90;;;;;;4965097;28;20198;-63
2022/04/10 06:50:28;;;;;;;8.70;4.00;;;17.40;99.90;;;;;;4946155;28;20289;-63
2022/04/10 06:52:58;;;;;;;8.70;4.60;;;19.20;99.90;;;;;;4932367;28;20274;-63
2022/04/10 06:55:25;;;;;;;8.02;4.03;;;20.80;99.90;;;;;;4945377;28;20881;-65
2022/04/10 06:57:53;;;;;;;7.97;4.00;;;19.20;99.90;;;;;;4947030;28;20722;-64
2022/04/10 07:00:22;;;;;;;11.38;4.47;;;18.40;99.90;;;;;;4964231;28;20724;-64
2022/04/10 07:02:50;;;;;;;11.07;4.93;;;18.40;99.90;;;;;;4945551;28;20198;-63
2022/04/10 07:05:18;;;;;;;10.23;4.07;;;15.30;99.90;;;;;;4946657;28;20210;-62
2022/04/10 07:07:49;;;;;;;11.10;4.43;;;16.90;99.90;;;;;;4952526;28;20187;-65
2022/04/10 07:10:16;;;;;;;10.13;4.38;;;18.10;99.90;;;;;;4961997;28;20209;-64
2022/04/10 07:12:45;;;;;;;9.07;4.15;;;19.00;99.90;;;;;;4944217;28;20241;-63
2022/04/10 07:15:12;;;;;;;10.13;4.28;;;18.50;99.90;;;;;;4952669;28;20599;-64
2022/04/10 07:17:40;;;;;;;8.55;4.25;;;20.10;99.90;;;;;;4953263;28;20191;-65
2022/04/10 07:20:09;;;;;;;8.25;3.58;;;22.00;99.90;;;;;;4947551;28;20234;-64
2022/04/10 07:25:25;;;;;;;7.68;3.72;;;24.30;99.90;;;;;;4947526;28;20236;-64
2022/04/10 07:27:52;;;;;;;10.98;4.25;;;24.80;99.90;;;;;;4965367;28;20234;-63
2022/04/10 07:30:48;;;;;;;9.25;4.32;;;22.30;99.90;;;;;;4938128;28;20209;-64
2022/04/10 07:33:17;;;;;;;6.15;3.75;;;22.90;99.90;;;;;;4962507;28;20234;-63
2022/04/10 07:35:51;;;;;;;7.53;4.40;;;20.70;99.90;;;;;;4949129;28;20585;-65
2022/04/10 07:38:27;;;;;;;12.00;4.00;;;19.10;99.90;;;;;;4952888;28;20206;-64
2022/04/10 07:40:57;;;;;;;9.98;4.35;;;18.30;99.90;;;;;;4953044;28;20567;-65
2022/04/10 07:43:31;;;;;;;12.70;4.93;;;16.80;99.90;;;;;;4945472;28;20289;-65
2022/04/10 07:48:47;;;;;;;8.73;4.68;;;20.20;99.90;;;;;;4949578;28;20575;-64
2022/04/10 07:51:17;;;;;;;10.88;4.00;;;22.30;99.90;;;;;;4947899;28;20217;-64
2022/04/10 07:53:55;;;;;;;9.20;4.55;;;24.30;99.90;;;;;;4950534;28;20214;-65
2022/04/10 07:56:23;;;;;;;7.38;3.78;;;21.60;99.90;;;;;;4947345;28;20209;-64
2022/04/10 07:58:50;;;;;;;14.63;3.70;;;23.00;99.90;;;;;;4939239;28;20206;-62
2022/04/10 08:01:30;;;;;;;9.45;4.18;;;23.40;99.90;;;;;;4957572;28;20795;-62
2022/04/10 08:04:01;;;;;;;9.55;4.50;;;22.80;99.90;;;;;;4959778;28;20629;-63
2022/04/10 08:06:54;;;;;;;13.55;5.72;;;24.10;99.90;;;;;;4937341;28;20202;-64
2022/04/10 08:09:21;;;;;;;10.07;5.25;;;23.00;99.90;;;;;;4949918;28;20614;-63
2022/04/10 08:11:50;;;;;;;11.00;3.63;;;23.80;99.90;;;;;;4952585;28;20206;-65
2022/04/10 08:14:17;;;;;;;10.70;4.30;;;24.50;99.90;;;;;;4965002;28;20557;-63
2022/04/10 08:16:44;;;;;;;10.57;4.35;;;26.00;99.90;;;;;;4970052;28;20201;-64
2022/04/10 08:19:12;;;;;;;12.25;5.90;;;26.90;99.90;;;;;;4968213;28;20199;-64
2022/04/10 08:21:39;;;;;;;9.60;4.07;;;28.80;99.90;;;;;;4954140;28;20211;-64
2022/04/10 08:24:09;;;;;;;9.88;5.13;;;27.00;99.90;;;;;;4967420;28;20195;-63
2022/04/10 08:26:35;;;;;;;8.32;3.13;;;26.40;99.90;;;;;;4967832;28;20227;-64
2022/04/10 08:29:02;;;;;;;9.77;3.60;;;23.30;99.90;;;;;;4967891;28;20205;-61
2022/04/10 08:31:29;;;;;;;10.82;3.50;;;21.20;99.90;;;;;;4957321;28;20194;-63
2022/04/10 08:33:57;;;;;;;13.90;4.57;;;19.90;99.90;;;;;;4953588;28;20242;-62
2022/04/10 08:36:27;;;;;;;11.65;3.78;;;17.80;99.90;;;;;;4948858;28;20270;-62
2022/04/10 08:38:54;;;;;;;9.45;5.80;;;17.50;99.90;;;;;;4968098;28;20202;-62
2022/04/10 08:41:23;;;;;;;11.35;5.90;;;16.60;99.90;;;;;;4952422;28;20602;-61
2022/04/10 08:43:52;;;;;;;12.45;5.50;;;15.20;99.90;;;;;;4970177;28;20245;-64
2022/04/10 08:46:19;;;;;;;12.45;5.18;;;14.10;99.90;;;;;;4967339;28;20218;-63
2022/04/10 08:48:49;;;;;;;13.13;5.50;;;13.10;99.90;;;;;;4970165;28;20233;-62
2022/04/10 08:51:16;;;;;;;11.60;4.27;;;12.50;99.90;;;;;;4950181;28;20718;-62
2022/04/10 08:53:44;;;;;;;25.30;7.93;;;12.20;99.90;;;;;;4964343;28;20222;-62
2022/04/10 08:56:11;;;;;;;29.10;11.53;;;11.80;99.90;;;;;;4969032;28;20198;-63
2022/04/10 08:58:38;;;;;;;20.83;6.10;;;11.30;1.00;;;;;;4952810;28;20195;-62
2022/04/10 09:01:05;;;;;;;12.47;5.00;;;10.90;1.00;;;;;;4965734;28;20194;-62
2022/04/10 09:03:32;;;;;;;11.83;5.30;;;10.70;1.00;;;;;;4948033;28;20232;-61
2022/04/10 09:06:07;;;;;;;16.33;7.13;;;11.00;1.00;;;;;;4966284;28;20720;-61
2022/04/10 09:08:34;;;;;;;9.17;4.07;;;12.00;1.00;;;;;;4967991;28;20193;-61
2022/04/10 09:11:03;;;;;;;8.73;3.00;;;13.70;99.90;;;;;;4949575;28;20202;-61
2022/04/10 09:13:33;;;;;;;9.17;2.83;;;14.20;99.90;;;;;;4968422;28;20701;-62
2022/04/10 09:16:07;;;;;;;7.27;2.90;;;14.00;99.90;;;;;;4952866;28;20307;-61
2022/04/10 09:18:49;;;;;;;7.07;2.60;;;14.10;99.90;;;;;;4952735;28;20273;-61
2022/04/10 09:21:18;;;;;;;7.97;2.63;;;13.70;99.90;;;;;;4966220;28;20218;-61
2022/04/10 09:24:02;;;;;;;5.33;2.63;;;14.00;99.90;;;;;;4967922;28;20238;-62
2022/04/10 09:26:44;;;;;;;8.90;3.03;;;14.10;99.90;;;;;;4965680;28;20960;-63
2022/04/10 09:29:13;;;;;;;7.40;2.80;;;13.80;99.90;;;;;;4968088;28;20257;-64
2022/04/10 09:31:40;;;;;;;8.03;3.70;;;13.50;99.90;;;;;;4968498;28;20195;-62
2022/04/10 09:34:19;;;;;;;6.57;2.67;;;13.10;99.90;;;;;;4946706;28;20212;-62
2022/04/10 09:37:06;;;;;;;5.07;2.53;;;13.10;99.90;;;;;;4964144;28;20275;-62
2022/04/10 09:39:35;;;;;;;7.20;3.10;;;12.80;99.90;;;;;;4968094;28;20201;-62
2022/04/10 09:42:10;;;;;;;8.07;2.80;;;12.90;99.90;;;;;;4965508;28;20195;-62
2022/04/10 09:44:57;;;;;;;6.03;2.43;;;12.50;99.90;;;;;;4965564;28;20257;-62
2022/04/10 09:47:27;;;;;;;7.97;2.77;;;12.60;99.90;;;;;;4946103;28;20210;-61
2022/04/10 09:50:04;;;;;;;5.97;1.93;;;12.80;99.90;;;;;;4949706;28;20210;-62
2022/04/10 09:52:35;;;;;;;5.87;2.57;;;12.70;99.90;;;;;;4948814;28;20194;-61
2022/04/10 09:55:04;;;;;;;11.07;3.10;;;13.20;99.90;;;;;;4959716;28;20218;-63
2022/04/10 09:57:34;;;;;;;20.33;12.13;;;13.00;99.90;;;;;;4963567;28;20205;-61
2022/04/10 10:00:02;;;;;;;10.10;4.00;;;13.00;99.90;;;;;;4953114;28;20202;-62
2022/04/10 10:02:38;;;;;;;5.90;1.93;;;13.30;99.90;;;;;;4966738;28;20657;-64
2022/04/10 10:05:06;;;;;;;5.15;2.35;;;15.00;99.90;;;;;;4947878;28;20198;-63
2022/04/10 10:07:36;;;;;;;7.80;2.67;;;19.90;99.90;;;;;;4964544;28;20817;-64
2022/04/10 10:10:03;;;;;;;5.50;2.30;;;21.70;99.90;;;;;;4949390;28;20209;-62
2022/04/10 10:12:30;;;;;;;7.18;2.20;;;22.90;99.90;;;;;;4953469;28;20298;-61
2022/04/10 10:14:57;;;;;;;4.43;1.98;;;23.20;99.90;;;;;;4957849;28;20226;-62
2022/04/10 10:17:26;;;;;;;8.30;2.40;;;26.10;99.90;;;;;;4951672;28;20218;-62
2022/04/10 10:19:55;;;;;;;6.93;2.13;;;25.90;99.90;;;;;;4962009;28;20194;-62
2022/04/10 10:22:22;;;;;;;5.57;1.75;;;24.20;99.90;;;;;;4959165;28;21780;-62
2022/04/10 10:25:24;;;;;;;6.90;2.45;;;20.10;99.90;;;;;;4958801;28;20210;-62
2022/04/10 10:28:29;;;;;;;5.20;2.35;;;17.20;99.90;;;;;;4947631;28;20255;-62
2022/04/10 10:31:47;;;;;;;5.55;2.35;;;15.10;99.90;;;;;;4965667;28;20209;-62
2022/04/10 10:34:15;;;;;;;23.02;14.35;;;13.60;99.90;;;;;;4886833;29;20220;-63
2022/04/10 10:36:42;;;;;;;5.63;2.47;;;14.30;99.90;;;;;;4941853;28;20222;-63
2022/04/10 10:39:09;;;;;;;8.45;3.15;;;15.30;99.90;;;;;;4942521;28;20202;-63
2022/04/10 10:41:38;;;;;;;7.75;2.10;;;16.20;99.90;;;;;;4930998;28;20199;-62
2022/04/10 10:44:16;;;;;;;8.73;2.10;;;16.10;99.90;;;;;;4933818;28;20210;-61
2022/04/10 10:47:02;;;;;;;4.18;1.70;;;16.30;99.90;;;;;;4963143;28;20613;-62
2022/04/10 10:49:31;;;;;;;12.23;7.88;;;17.40;99.90;;;;;;4960706;28;20202;-62
2022/04/10 10:52:10;;;;;;;6.70;3.25;;;15.80;99.90;;;;;;4947112;28;20202;-63
2022/04/10 10:54:44;;;;;;;6.57;2.22;;;15.50;99.90;;;;;;4925738;28;20214;-62
2022/04/10 10:57:22;;;;;;;6.00;2.22;;;14.10;99.90;;;;;;4958135;28;20636;-62
2022/04/10 11:00:15;;;;;;;4.40;2.25;;;14.60;99.90;;;;;;4958442;28;20198;-62
2022/04/10 11:02:52;;;;;;;8.20;2.40;;;14.00;99.90;;;;;;4953194;28;20268;-62
2022/04/10 11:05:24;;;;;;;7.15;1.92;;;13.70;99.90;;;;;;4961215;28;20198;-63
2022/04/10 11:08:12;;;;;;;5.47;1.70;;;16.20;99.90;;;;;;4933698;28;20214;-62
2022/04/10 11:11:02;;;;;;;6.03;1.48;;;18.40;99.90;;;;;;4935850;28;20199;-61
2022/04/10 11:13:42;;;;;;;2.10;1.38;;;19.00;99.90;;;;;;4950022;28;20601;-61
2022/04/10 11:16:10;;;;;;;4.30;1.25;;;20.10;99.90;;;;;;4944684;28;20215;-62
2022/04/10 11:18:49;;;;;;;3.47;1.58;;;21.00;99.90;;;;;;4960226;28;21048;-62
2022/04/10 11:21:20;;;;;;;4.50;1.73;;;21.10;99.90;;;;;;4942943;28;20219;-61
2022/04/10 11:23:57;;;;;;;4.78;2.85;;;19.80;99.90;;;;;;4944007;28;20195;-63
2022/04/10 11:26:27;;;;;;;3.58;1.60;;;17.80;99.90;;;;;;4960706;28;20205;-62
2022/04/10 11:29:00;;;;;;;4.70;1.73;;;15.70;99.90;;;;;;4947106;28;20212;-63
2022/04/10 11:31:48;;;;;;;6.68;1.90;;;14.70;99.90;;;;;;4945200;28;20202;-62
2022/04/10 11:34:28;;;;;;;4.05;2.13;;;14.10;99.90;;;;;;4961867;28;20206;-62
2022/04/10 11:36:59;;;;;;;8.40;3.17;;;13.50;99.90;;;;;;4963786;28;20183;-62
2022/04/10 11:39:26;;;;;;;7.00;3.35;;;13.30;99.90;;;;;;4939535;28;20187;-64
2022/04/10 11:41:57;;;;;;;4.80;2.45;;;14.90;99.90;;;;;;4966644;28;20213;-63
2022/04/10 11:44:25;;;;;;;2.88;1.58;;;17.00;99.90;;;;;;4967790;28;20613;-62
2022/04/10 11:46:52;;;;;;;3.00;1.40;;;17.70;99.90;;;;;;4966094;28;20194;-63
2022/04/10 11:49:20;;;;;;;4.18;3.13;;;18.80;99.90;;;;;;4955683;28;20257;-62
2022/04/10 11:51:51;;;;;;;3.40;1.70;;;19.70;99.90;;;;;;4950662;28;20203;-63
2022/04/10 11:54:31;;;;;;;4.32;2.15;;;18.60;99.90;;;;;;4950316;28;21194;-62
2022/04/10 11:57:00;;;;;;;3.10;1.48;;;17.30;99.90;;;;;;4947269;28;20321;-63
2022/04/10 11:59:38;;;;;;;2.95;1.27;;;16.60;99.90;;;;;;4966810;28;21194;-63
2022/04/10 12:02:12;;;;;;;2.45;1.33;;;16.20;99.90;;;;;;4964767;28;20245;-62
2022/04/10 12:04:41;;;;;;;5.93;1.73;;;16.80;99.90;;;;;;4966486;28;20836;-62
2022/04/10 12:07:19;;;;;;;2.65;1.20;;;16.50;99.90;;;;;;4962455;28;21150;-62
2022/04/10 12:09:53;;;;;;;4.25;1.15;;;16.10;99.90;;;;;;4946703;28;20207;-63
2022/04/10 12:12:33;;;;;;;4.82;1.40;;;15.20;99.90;;;;;;4927026;28;20218;-64
2022/04/10 12:15:00;;;;;;;7.50;3.15;;;14.80;99.90;;;;;;4953932;28;20247;-62
2022/04/10 12:17:27;;;;;;;3.70;1.63;;;14.50;99.90;;;;;;4962817;28;20202;-62
2022/04/10 12:19:55;;;;;;;8.35;2.92;;;15.60;99.90;;;;;;4966122;28;20330;-63
2022/04/10 12:22:25;;;;;;;5.10;1.33;;;16.10;99.90;;;;;;4955338;28;20194;-62
2022/04/10 12:24:59;;;;;;;5.28;2.03;;;17.00;99.90;;;;;;4950670;28;20958;-63
2022/04/10 12:27:26;;;;;;;6.32;1.95;;;17.10;99.90;;;;;;4950610;28;20905;-63
2022/04/10 12:29:57;;;;;;;5.97;3.58;;;17.20;99.90;;;;;;4962855;28;20202;-61
2022/04/10 12:32:25;;;;;;;11.63;6.82;;;17.10;99.90;;;;;;4964225;28;20195;-62
2022/04/10 12:34:54;;;;;;;4.32;2.33;;;17.30;99.90;;;;;;4953808;28;20226;-60
2022/04/10 12:37:21;;;;;;;3.70;1.40;;;17.70;99.90;;;;;;4946212;28;20355;-62
2022/04/10 12:39:48;;;;;;;3.88;1.70;;;17.10;99.90;;;;;;4942221;28;20254;-60
2022/04/10 12:42:20;;;;;;;3.45;1.23;;;16.10;99.90;;;;;;4958670;28;20202;-61
2022/04/10 12:44:58;;;;;;;4.57;1.40;;;15.30;99.90;;;;;;4960608;28;20202;-62
2022/04/10 12:47:45;;;;;;;2.23;1.40;;;14.50;99.90;;;;;;4958776;28;20912;-61
2022/04/10 12:50:22;;;;;;;3.17;2.13;;;14.50;99.90;;;;;;4959791;28;20732;-61
2022/04/10 12:52:52;;;;;;;2.87;1.30;;;14.50;99.90;;;;;;4956292;28;20301;-61
2022/04/10 12:55:24;;;;;;;3.73;1.77;;;13.70;99.90;;;;;;4966018;28;20213;-61
2022/04/10 12:57:58;;;;;;;6.37;2.30;;;12.90;99.90;;;;;;4950057;28;20234;-62
2022/04/10 13:00:48;;;;;;;3.83;2.23;;;12.70;99.90;;;;;;4963457;28;20202;-62
2022/04/10 13:03:24;;;;;;;2.93;1.50;;;12.70;99.90;;;;;;4957377;28;20218;-61
2022/04/10 13:05:58;;;;;;;3.93;1.67;;;12.80;99.90;;;;;;4961220;28;20198;-61
2022/04/10 13:08:27;;;;;;;4.13;1.70;;;12.70;99.90;;;;;;4962933;28;20198;-61
2022/04/10 13:10:57;;;;;;;4.23;1.50;;;13.00;99.90;;;;;;4951185;28;20195;-61
2022/04/10 13:14:06;;;;;;;4.60;1.40;;;13.50;99.90;;;;;;4952874;28;20198;-63